sensor_id;sensor_type;location;lat;lon;timestamp;pressure;altitude;pressure_sealevel;temperature;humidity
74552;BME280;63025;55.472;38.432;2022-10-15T00:01:43;101020.84;;;5.13;74.03
74552;BME280;63025;55.472;38.432;2022-10-15T00:04:09;101017.41;;;5.03;73.74
74552;BME280;63025;55.472;38.432;2022-10-15T00:06:35;101023.34;;;4.97;73.73
74552;BME280;63025;55.472;38.432;2022-10-15T00:09:01;101031.47;;;4.96;73.81
74552;BME280;63025;55.472;38.432;2022-10-15T00:11:29;101031.06;;;4.91;73.48
74552;BME280;63025;55.472;38.432;2022-10-15T00:13:57;101027.19;;;4.85;73.75
74552;BME280;63025;55.472;38.432;2022-10-15T00:16:25;101028.59;;;4.79;73.85
74552;BME280;63025;55.472;38.432;2022-10-15T00:18:55;101032.09;;;4.80;74.00
74552;BME280;63025;55.472;38.432;2022-10-15T00:21:21;101025.28;;;4.77;73.74
74552;BME280;63025;55.472;38.432;2022-10-15T00:23:48;101029.16;;;4.83;74.13
74552;BME280;63025;55.472;38.432;2022-10-15T00:26:17;101033.03;;;4.89;73.91
74552;BME280;63025;55.472;38.432;2022-10-15T00:28:44;101028.25;;;4.92;73.67
74552;BME280;63025;55.472;38.432;2022-10-15T00:31:13;101023.78;;;4.93;73.54
74552;BME280;63025;55.472;38.432;2022-10-15T00:33:40;101032.47;;;4.95;73.65
74552;BME280;63025;55.472;38.432;2022-10-15T00:36:12;101028.66;;;4.97;73.70
74552;BME280;63025;55.472;38.432;2022-10-15T00:38:39;101029.59;;;5.06;73.27
74552;BME280;63025;55.472;38.432;2022-10-15T00:41:06;101032.78;;;5.09;73.81
74552;BME280;63025;55.472;38.432;2022-10-15T00:43:44;101032.03;;;5.17;73.80
74552;BME280;63025;55.472;38.432;2022-10-15T00:52:02;101030.16;;;5.45;73.91
74552;BME280;63025;55.472;38.432;2022-10-15T00:54:32;101024.75;;;5.54;73.67
74552;BME280;63025;55.472;38.432;2022-10-15T00:56:59;101031.13;;;5.62;73.41
74552;BME280;63025;55.472;38.432;2022-10-15T00:59:26;101033.34;;;5.66;73.12
74552;BME280;63025;55.472;38.432;2022-10-15T01:01:54;101033.72;;;5.71;73.46
74552;BME280;63025;55.472;38.432;2022-10-15T01:04:21;101031.44;;;5.76;73.27
74552;BME280;63025;55.472;38.432;2022-10-15T01:06:48;101035.63;;;5.79;73.42
74552;BME280;63025;55.472;38.432;2022-10-15T01:09:14;101029.13;;;5.81;73.31
74552;BME280;63025;55.472;38.432;2022-10-15T01:11:44;101029.75;;;5.75;73.35
74552;BME280;63025;55.472;38.432;2022-10-15T01:16:59;101033.03;;;5.87;73.83
74552;BME280;63025;55.472;38.432;2022-10-15T01:22:38;101034.78;;;5.96;73.46
74552;BME280;63025;55.472;38.432;2022-10-15T01:28:47;101032.13;;;5.96;73.91
74552;BME280;63025;55.472;38.432;2022-10-15T01:31:42;101032.72;;;6.08;73.88
74552;BME280;63025;55.472;38.432;2022-10-15T01:34:23;101024.25;;;6.12;73.91
74552;BME280;63025;55.472;38.432;2022-10-15T01:37:07;101024.75;;;6.16;73.36
74552;BME280;63025;55.472;38.432;2022-10-15T01:39:40;101028.97;;;6.18;73.50
74552;BME280;63025;55.472;38.432;2022-10-15T01:42:17;101026.97;;;6.20;73.23
74552;BME280;63025;55.472;38.432;2022-10-15T01:44:53;101030.16;;;6.24;73.47
74552;BME280;63025;55.472;38.432;2022-10-15T01:47:49;101033.66;;;6.24;73.62
74552;BME280;63025;55.472;38.432;2022-10-15T01:50:19;101039.31;;;6.21;73.06
74552;BME280;63025;55.472;38.432;2022-10-15T01:52:48;101043.81;;;6.21;73.24
74552;BME280;63025;55.472;38.432;2022-10-15T01:55:17;101036.69;;;6.04;72.92
74552;BME280;63025;55.472;38.432;2022-10-15T01:57:46;101045.47;;;5.96;73.50
74552;BME280;63025;55.472;38.432;2022-10-15T02:00:13;101049.03;;;6.05;73.88
74552;BME280;63025;55.472;38.432;2022-10-15T02:02:40;101048.88;;;6.06;73.58
74552;BME280;63025;55.472;38.432;2022-10-15T02:05:25;101046.75;;;6.10;73.82
74552;BME280;63025;55.472;38.432;2022-10-15T02:07:58;101038.06;;;6.08;73.67
74552;BME280;63025;55.472;38.432;2022-10-15T02:13:34;101039.72;;;6.09;73.32
74552;BME280;63025;55.472;38.432;2022-10-15T02:19:46;101044.13;;;6.18;73.35
74552;BME280;63025;55.472;38.432;2022-10-15T02:22:18;101059.59;;;6.14;72.92
74552;BME280;63025;55.472;38.432;2022-10-15T02:24:52;101052.59;;;6.13;72.72
74552;BME280;63025;55.472;38.432;2022-10-15T02:27:23;101049.47;;;6.18;72.48
74552;BME280;63025;55.472;38.432;2022-10-15T02:29:51;101058.66;;;6.23;73.05
74552;BME280;63025;55.472;38.432;2022-10-15T02:32:22;101057.22;;;6.29;72.92
74552;BME280;63025;55.472;38.432;2022-10-15T02:34:50;101055.94;;;6.33;73.11
74552;BME280;63025;55.472;38.432;2022-10-15T02:37:20;101059.94;;;6.37;72.97
74552;BME280;63025;55.472;38.432;2022-10-15T02:39:47;101055.78;;;6.17;72.18
74552;BME280;63025;55.472;38.432;2022-10-15T02:42:15;101053.28;;;6.15;72.50
74552;BME280;63025;55.472;38.432;2022-10-15T02:44:41;101062.19;;;6.24;72.82
74552;BME280;63025;55.472;38.432;2022-10-15T02:47:07;101054.91;;;6.34;72.80
74552;BME280;63025;55.472;38.432;2022-10-15T02:49:34;101063.41;;;6.30;72.72
74552;BME280;63025;55.472;38.432;2022-10-15T02:52:01;101059.19;;;6.27;72.67
74552;BME280;63025;55.472;38.432;2022-10-15T02:54:27;101063.34;;;6.21;72.36
74552;BME280;63025;55.472;38.432;2022-10-15T02:56:53;101069.84;;;6.19;72.26
74552;BME280;63025;55.472;38.432;2022-10-15T02:59:20;101056.03;;;6.06;72.49
74552;BME280;63025;55.472;38.432;2022-10-15T03:01:48;101058.13;;;6.12;72.85
74552;BME280;63025;55.472;38.432;2022-10-15T03:04:14;101051.75;;;6.13;72.23
74552;BME280;63025;55.472;38.432;2022-10-15T03:06:40;101060.16;;;6.18;72.79
74552;BME280;63025;55.472;38.432;2022-10-15T03:09:07;101064.84;;;6.24;72.44
74552;BME280;63025;55.472;38.432;2022-10-15T03:11:33;101067.59;;;6.32;72.64
74552;BME280;63025;55.472;38.432;2022-10-15T03:14:00;101066.81;;;6.40;72.92
74552;BME280;63025;55.472;38.432;2022-10-15T03:16:29;101072.19;;;6.48;72.82
74552;BME280;63025;55.472;38.432;2022-10-15T03:18:54;101070.06;;;6.51;72.79
74552;BME280;63025;55.472;38.432;2022-10-15T03:21:20;101076.50;;;6.41;72.98
74552;BME280;63025;55.472;38.432;2022-10-15T03:23:46;101068.47;;;6.41;72.67
74552;BME280;63025;55.472;38.432;2022-10-15T03:26:19;101069.47;;;6.40;72.78
74552;BME280;63025;55.472;38.432;2022-10-15T03:28:45;101057.84;;;6.23;72.72
74552;BME280;63025;55.472;38.432;2022-10-15T03:31:18;101062.41;;;6.31;72.94
74552;BME280;63025;55.472;38.432;2022-10-15T03:33:47;101064.53;;;6.27;72.81
74552;BME280;63025;55.472;38.432;2022-10-15T03:36:15;101058.84;;;6.22;72.32
74552;BME280;63025;55.472;38.432;2022-10-15T03:38:41;101066.53;;;6.25;72.43
74552;BME280;63025;55.472;38.432;2022-10-15T03:41:11;101064.38;;;6.29;72.75
74552;BME280;63025;55.472;38.432;2022-10-15T03:43:40;101070.63;;;6.37;72.89
74552;BME280;63025;55.472;38.432;2022-10-15T03:46:07;101067.50;;;6.42;72.83
74552;BME280;63025;55.472;38.432;2022-10-15T03:48:37;101067.69;;;6.48;72.55
74552;BME280;63025;55.472;38.432;2022-10-15T03:51:03;101064.03;;;6.49;72.59
74552;BME280;63025;55.472;38.432;2022-10-15T03:53:29;101073.88;;;6.49;72.30
74552;BME280;63025;55.472;38.432;2022-10-15T03:55:55;101077.00;;;6.44;72.33
74552;BME280;63025;55.472;38.432;2022-10-15T03:58:21;101079.66;;;6.44;72.53
74552;BME280;63025;55.472;38.432;2022-10-15T04:00:53;101076.50;;;6.23;72.44
74552;BME280;63025;55.472;38.432;2022-10-15T04:03:19;101081.66;;;6.16;72.61
74552;BME280;63025;55.472;38.432;2022-10-15T04:05:50;101078.03;;;6.25;73.14
74552;BME280;63025;55.472;38.432;2022-10-15T04:08:17;101075.66;;;6.40;72.94
74552;BME280;63025;55.472;38.432;2022-10-15T04:10:43;101080.34;;;6.46;72.99
74552;BME280;63025;55.472;38.432;2022-10-15T04:13:10;101077.69;;;6.46;72.50
74552;BME280;63025;55.472;38.432;2022-10-15T04:15:39;101076.69;;;6.47;72.89
74552;BME280;63025;55.472;38.432;2022-10-15T04:18:08;101083.91;;;6.55;73.40
74552;BME280;63025;55.472;38.432;2022-10-15T04:20:35;101080.34;;;6.46;72.90
74552;BME280;63025;55.472;38.432;2022-10-15T04:23:10;101081.19;;;6.47;72.73
74552;BME280;63025;55.472;38.432;2022-10-15T04:25:38;101078.22;;;6.50;72.75
74552;BME280;63025;55.472;38.432;2022-10-15T04:28:06;101088.78;;;6.59;73.45
74552;BME280;63025;55.472;38.432;2022-10-15T04:30:34;101088.81;;;6.68;73.08
74552;BME280;63025;55.472;38.432;2022-10-15T04:33:04;101089.06;;;6.74;73.25
74552;BME280;63025;55.472;38.432;2022-10-15T04:35:30;101093.91;;;6.79;72.93
74552;BME280;63025;55.472;38.432;2022-10-15T04:38:06;101093.59;;;6.82;72.56
74552;BME280;63025;55.472;38.432;2022-10-15T04:40:57;101091.06;;;6.80;72.58
74552;BME280;63025;55.472;38.432;2022-10-15T04:43:28;101092.91;;;6.80;72.53
74552;BME280;63025;55.472;38.432;2022-10-15T04:45:59;101102.09;;;6.85;72.70
74552;BME280;63025;55.472;38.432;2022-10-15T04:48:31;101094.47;;;6.90;72.59
74552;BME280;63025;55.472;38.432;2022-10-15T04:53:43;101106.09;;;6.81;72.04
74552;BME280;63025;55.472;38.432;2022-10-15T04:56:12;101105.56;;;6.78;71.98
74552;BME280;63025;55.472;38.432;2022-10-15T04:58:41;101107.78;;;6.82;72.97
74552;BME280;63025;55.472;38.432;2022-10-15T05:01:11;101112.16;;;6.91;72.67
74552;BME280;63025;55.472;38.432;2022-10-15T05:03:56;101105.19;;;6.98;72.87
74552;BME280;63025;55.472;38.432;2022-10-15T05:06:23;101110.75;;;7.05;72.68
74552;BME280;63025;55.472;38.432;2022-10-15T05:08:55;101118.41;;;7.08;72.55
74552;BME280;63025;55.472;38.432;2022-10-15T05:11:26;101093.69;;;7.06;72.47
74552;BME280;63025;55.472;38.432;2022-10-15T05:13:55;101116.81;;;7.15;72.13
74552;BME280;63025;55.472;38.432;2022-10-15T05:16:25;101114.44;;;7.12;72.41
74552;BME280;63025;55.472;38.432;2022-10-15T05:18:56;101109.63;;;6.82;72.05
74552;BME280;63025;55.472;38.432;2022-10-15T05:21:22;101108.59;;;6.75;72.11
74552;BME280;63025;55.472;38.432;2022-10-15T05:23:52;101109.97;;;6.87;72.67
74552;BME280;63025;55.472;38.432;2022-10-15T05:26:37;101115.25;;;7.05;72.70
74552;BME280;63025;55.472;38.432;2022-10-15T05:29:03;101118.28;;;7.18;72.60
74552;BME280;63025;55.472;38.432;2022-10-15T05:31:32;101120.84;;;7.27;72.08
74552;BME280;63025;55.472;38.432;2022-10-15T05:34:06;101119.22;;;7.34;71.88
74552;BME280;63025;55.472;38.432;2022-10-15T05:36:36;101119.53;;;7.40;71.90
74552;BME280;63025;55.472;38.432;2022-10-15T05:39:04;101125.25;;;7.45;71.45
74552;BME280;63025;55.472;38.432;2022-10-15T05:41:38;101122.91;;;7.50;71.30
74552;BME280;63025;55.472;38.432;2022-10-15T05:44:04;101131.63;;;7.52;71.65
74552;BME280;63025;55.472;38.432;2022-10-15T05:46:30;101132.63;;;7.59;71.98
74552;BME280;63025;55.472;38.432;2022-10-15T05:48:56;101129.47;;;7.63;71.74
74552;BME280;63025;55.472;38.432;2022-10-15T05:51:24;101127.13;;;7.60;70.69
74552;BME280;63025;55.472;38.432;2022-10-15T05:53:57;101121.91;;;7.43;70.21
74552;BME280;63025;55.472;38.432;2022-10-15T05:56:25;101132.75;;;7.41;70.42
74552;BME280;63025;55.472;38.432;2022-10-15T05:58:51;101135.81;;;7.54;70.51
74552;BME280;63025;55.472;38.432;2022-10-15T06:01:21;101135.34;;;7.67;70.63
74552;BME280;63025;55.472;38.432;2022-10-15T06:03:50;101136.84;;;7.69;69.73
74552;BME280;63025;55.472;38.432;2022-10-15T06:06:21;101137.03;;;7.76;69.23
74552;BME280;63025;55.472;38.432;2022-10-15T06:08:49;101146.59;;;7.79;69.13
74552;BME280;63025;55.472;38.432;2022-10-15T06:11:16;101144.91;;;7.86;68.82
74552;BME280;63025;55.472;38.432;2022-10-15T06:13:43;101147.44;;;7.87;68.53
74552;BME280;63025;55.472;38.432;2022-10-15T06:16:10;101147.59;;;7.86;68.17
74552;BME280;63025;55.472;38.432;2022-10-15T06:18:36;101148.09;;;7.89;68.38
74552;BME280;63025;55.472;38.432;2022-10-15T06:21:04;101147.13;;;7.98;68.62
74552;BME280;63025;55.472;38.432;2022-10-15T06:23:30;101148.78;;;8.07;68.47
74552;BME280;63025;55.472;38.432;2022-10-15T06:26:01;101148.13;;;8.14;67.96
74552;BME280;63025;55.472;38.432;2022-10-15T06:28:27;101146.59;;;8.03;67.30
74552;BME280;63025;55.472;38.432;2022-10-15T06:30:57;101148.13;;;7.97;67.57
74552;BME280;63025;55.472;38.432;2022-10-15T06:33:26;101152.47;;;8.06;67.58
74552;BME280;63025;55.472;38.432;2022-10-15T06:35:52;101153.31;;;8.15;67.69
74552;BME280;63025;55.472;38.432;2022-10-15T06:38:19;101153.13;;;8.00;67.07
74552;BME280;63025;55.472;38.432;2022-10-15T06:40:45;101151.44;;;7.99;67.73
74552;BME280;63025;55.472;38.432;2022-10-15T06:43:11;101150.78;;;8.05;67.21
74552;BME280;63025;55.472;38.432;2022-10-15T06:45:39;101156.63;;;8.01;67.20
74552;BME280;63025;55.472;38.432;2022-10-15T06:48:15;101155.31;;;8.05;67.23
74552;BME280;63025;55.472;38.432;2022-10-15T06:50:41;101159.66;;;8.14;66.98
74552;BME280;63025;55.472;38.432;2022-10-15T06:53:07;101153.50;;;8.30;67.23
74552;BME280;63025;55.472;38.432;2022-10-15T06:55:34;101167.25;;;8.35;66.82
74552;BME280;63025;55.472;38.432;2022-10-15T06:58:00;101162.72;;;8.35;66.51
74552;BME280;63025;55.472;38.432;2022-10-15T07:00:28;101170.72;;;8.27;66.55
74552;BME280;63025;55.472;38.432;2022-10-15T07:02:54;101171.75;;;8.34;66.86
74552;BME280;63025;55.472;38.432;2022-10-15T07:05:20;101161.88;;;8.35;67.22
74552;BME280;63025;55.472;38.432;2022-10-15T07:07:53;101171.44;;;8.37;66.99
74552;BME280;63025;55.472;38.432;2022-10-15T07:10:20;101171.13;;;8.40;67.05
74552;BME280;63025;55.472;38.432;2022-10-15T07:12:47;101176.09;;;8.43;66.71
74552;BME280;63025;55.472;38.432;2022-10-15T07:15:13;101185.63;;;8.30;66.84
74552;BME280;63025;55.472;38.432;2022-10-15T07:17:39;101174.44;;;8.34;67.21
74552;BME280;63025;55.472;38.432;2022-10-15T07:20:10;101187.34;;;8.47;66.92
74552;BME280;63025;55.472;38.432;2022-10-15T07:22:36;101181.47;;;8.60;66.91
74552;BME280;63025;55.472;38.432;2022-10-15T07:25:02;101182.97;;;8.70;66.92
74552;BME280;63025;55.472;38.432;2022-10-15T07:27:28;101193.53;;;8.80;65.95
74552;BME280;63025;55.472;38.432;2022-10-15T07:29:55;101193.34;;;8.81;66.18
74552;BME280;63025;55.472;38.432;2022-10-15T07:32:21;101187.63;;;8.84;66.14
74552;BME280;63025;55.472;38.432;2022-10-15T07:34:47;101186.94;;;8.99;66.16
74552;BME280;63025;55.472;38.432;2022-10-15T07:37:13;101184.56;;;9.12;65.81
74552;BME280;63025;55.472;38.432;2022-10-15T07:39:39;101189.91;;;9.20;65.71
74552;BME280;63025;55.472;38.432;2022-10-15T07:42:05;101193.91;;;9.32;65.53
74552;BME280;63025;55.472;38.432;2022-10-15T07:44:31;101195.38;;;9.35;65.12
74552;BME280;63025;55.472;38.432;2022-10-15T07:46:58;101192.13;;;9.08;64.69
74552;BME280;63025;55.472;38.432;2022-10-15T07:49:24;101206.19;;;9.10;64.68
74552;BME280;63025;55.472;38.432;2022-10-15T07:51:49;101207.03;;;9.11;64.71
74552;BME280;63025;55.472;38.432;2022-10-15T07:54:15;101196.31;;;9.11;64.75
74552;BME280;63025;55.472;38.432;2022-10-15T07:56:41;101199.63;;;9.21;64.76
74552;BME280;63025;55.472;38.432;2022-10-15T07:59:07;101197.75;;;9.30;64.60
74552;BME280;63025;55.472;38.432;2022-10-15T08:01:33;101183.63;;;9.36;64.60
74552;BME280;63025;55.472;38.432;2022-10-15T08:03:59;101201.56;;;9.43;64.26
74552;BME280;63025;55.472;38.432;2022-10-15T08:06:26;101190.97;;;9.50;64.27
74552;BME280;63025;55.472;38.432;2022-10-15T08:08:51;101195.81;;;9.54;63.85
74552;BME280;63025;55.472;38.432;2022-10-15T08:11:17;101194.22;;;9.68;64.19
74552;BME280;63025;55.472;38.432;2022-10-15T08:13:44;101193.00;;;9.79;62.98
74552;BME280;63025;55.472;38.432;2022-10-15T08:16:13;101197.63;;;9.93;62.73
74552;BME280;63025;55.472;38.432;2022-10-15T08:18:41;101195.63;;;9.95;62.47
74552;BME280;63025;55.472;38.432;2022-10-15T08:21:07;101196.41;;;10.04;62.48
74552;BME280;63025;55.472;38.432;2022-10-15T08:23:34;101194.44;;;10.20;62.33
74552;BME280;63025;55.472;38.432;2022-10-15T08:26:01;101193.69;;;10.35;61.69
74552;BME280;63025;55.472;38.432;2022-10-15T08:28:27;101186.72;;;9.94;61.12
74552;BME280;63025;55.472;38.432;2022-10-15T08:30:53;101190.44;;;10.16;61.81
74552;BME280;63025;55.472;38.432;2022-10-15T08:33:20;101198.00;;;10.13;61.33
74552;BME280;63025;55.472;38.432;2022-10-15T08:35:46;101199.47;;;10.23;61.05
74552;BME280;63025;55.472;38.432;2022-10-15T08:38:12;101206.88;;;10.21;60.71
74552;BME280;63025;55.472;38.432;2022-10-15T08:40:38;101219.91;;;10.33;60.77
74552;BME280;63025;55.472;38.432;2022-10-15T08:43:20;101215.13;;;10.43;60.66
74552;BME280;63025;55.472;38.432;2022-10-15T08:45:48;101217.75;;;10.51;60.39
74552;BME280;63025;55.472;38.432;2022-10-15T08:48:29;101218.22;;;10.54;59.73
74552;BME280;63025;55.472;38.432;2022-10-15T08:51:10;101220.34;;;10.59;59.66
74552;BME280;63025;55.472;38.432;2022-10-15T08:53:53;101217.66;;;10.59;59.26
74552;BME280;63025;55.472;38.432;2022-10-15T08:56:23;101224.53;;;10.61;59.14
74552;BME280;63025;55.472;38.432;2022-10-15T09:01:47;101209.91;;;10.64;59.57
74552;BME280;63025;55.472;38.432;2022-10-15T09:06:45;101211.84;;;10.70;59.09
74552;BME280;63025;55.472;38.432;2022-10-15T09:11:55;101206.59;;;10.77;59.20
74552;BME280;63025;55.472;38.432;2022-10-15T09:14:28;101217.31;;;10.62;58.39
74552;BME280;63025;55.472;38.432;2022-10-15T09:17:00;101214.59;;;10.47;58.74
74552;BME280;63025;55.472;38.432;2022-10-15T09:19:28;101219.75;;;10.49;58.68
74552;BME280;63025;55.472;38.432;2022-10-15T09:21:55;101213.44;;;10.42;58.77
74552;BME280;63025;55.472;38.432;2022-10-15T09:24:27;101220.50;;;10.43;58.78
74552;BME280;63025;55.472;38.432;2022-10-15T09:27:09;101212.00;;;10.54;59.09
74552;BME280;63025;55.472;38.432;2022-10-15T09:32:24;101218.72;;;10.58;59.07
74552;BME280;63025;55.472;38.432;2022-10-15T09:35:02;101222.41;;;10.57;58.87
74552;BME280;63025;55.472;38.432;2022-10-15T09:37:40;101216.28;;;10.63;58.88
74552;BME280;63025;55.472;38.432;2022-10-15T09:42:56;101235.78;;;10.65;58.54
74552;BME280;63025;55.472;38.432;2022-10-15T09:45:24;101225.03;;;10.65;58.61
74552;BME280;63025;55.472;38.432;2022-10-15T09:47:50;101233.00;;;10.73;58.70
74552;BME280;63025;55.472;38.432;2022-10-15T09:50:16;101229.13;;;10.76;58.84
74552;BME280;63025;55.472;38.432;2022-10-15T09:58:27;101229.78;;;10.78;58.22
74552;BME280;63025;55.472;38.432;2022-10-15T10:01:01;101227.03;;;10.86;58.33
74552;BME280;63025;55.472;38.432;2022-10-15T10:03:35;101224.25;;;10.94;58.32
74552;BME280;63025;55.472;38.432;2022-10-15T10:06:10;101233.16;;;10.94;58.70
74552;BME280;63025;55.472;38.432;2022-10-15T10:08:57;101224.34;;;11.00;58.07
74552;BME280;63025;55.472;38.432;2022-10-15T10:11:24;101221.88;;;10.99;57.31
74552;BME280;63025;55.472;38.432;2022-10-15T10:13:56;101223.59;;;10.92;56.84
74552;BME280;63025;55.472;38.432;2022-10-15T10:16:24;101228.13;;;10.77;56.40
74552;BME280;63025;55.472;38.432;2022-10-15T10:21:36;101221.91;;;10.76;56.73
74552;BME280;63025;55.472;38.432;2022-10-15T10:26:53;101222.34;;;10.80;56.16
74552;BME280;63025;55.472;38.432;2022-10-15T10:29:20;101231.91;;;10.82;56.28
74552;BME280;63025;55.472;38.432;2022-10-15T10:31:47;101236.59;;;10.88;56.15
74552;BME280;63025;55.472;38.432;2022-10-15T10:34:30;101233.25;;;10.86;55.79
74552;BME280;63025;55.472;38.432;2022-10-15T10:37:01;101236.88;;;10.93;55.78
74552;BME280;63025;55.472;38.432;2022-10-15T10:39:30;101233.16;;;10.94;55.63
74552;BME280;63025;55.472;38.432;2022-10-15T10:42:01;101230.28;;;10.96;55.47
74552;BME280;63025;55.472;38.432;2022-10-15T10:44:36;101234.47;;;10.98;55.40
74552;BME280;63025;55.472;38.432;2022-10-15T10:52:25;101234.03;;;11.10;55.75
74552;BME280;63025;55.472;38.432;2022-10-15T10:55:18;101231.88;;;11.05;56.17
74552;BME280;63025;55.472;38.432;2022-10-15T10:57:56;101225.28;;;10.93;56.83
74552;BME280;63025;55.472;38.432;2022-10-15T11:00:29;101226.84;;;10.87;56.99
74552;BME280;63025;55.472;38.432;2022-10-15T11:02:57;101235.00;;;10.79;57.35
74552;BME280;63025;55.472;38.432;2022-10-15T11:05:28;101219.13;;;10.84;57.65
74552;BME280;63025;55.472;38.432;2022-10-15T11:08:07;101220.81;;;10.85;57.34
74552;BME280;63025;55.472;38.432;2022-10-15T11:11:10;101229.38;;;10.89;57.50
74552;BME280;63025;55.472;38.432;2022-10-15T11:14:04;101226.28;;;10.92;57.51
74552;BME280;63025;55.472;38.432;2022-10-15T11:19:44;101226.28;;;10.77;58.03
74552;BME280;63025;55.472;38.432;2022-10-15T11:31:09;101223.19;;;10.80;57.63
74552;BME280;63025;55.472;38.432;2022-10-15T11:36:09;101227.69;;;10.88;57.72
74552;BME280;63025;55.472;38.432;2022-10-15T11:42:01;101229.84;;;10.70;57.24
74552;BME280;63025;55.472;38.432;2022-10-15T11:47:39;101226.53;;;10.82;56.89
74552;BME280;63025;55.472;38.432;2022-10-15T11:53:02;101223.75;;;10.76;56.29
74552;BME280;63025;55.472;38.432;2022-10-15T11:58:14;101218.91;;;10.71;56.51
74552;BME280;63025;55.472;38.432;2022-10-15T12:00:46;101218.06;;;10.71;56.47
74552;BME280;63025;55.472;38.432;2022-10-15T12:03:17;101217.88;;;10.57;55.89
74552;BME280;63025;55.472;38.432;2022-10-15T12:05:57;101214.16;;;10.58;56.10
74552;BME280;63025;55.472;38.432;2022-10-15T12:08:33;101214.53;;;10.55;55.95
74552;BME280;63025;55.472;38.432;2022-10-15T12:13:47;101211.84;;;10.70;56.19
74552;BME280;63025;55.472;38.432;2022-10-15T12:19:23;101214.97;;;10.59;55.83
74552;BME280;63025;55.472;38.432;2022-10-15T12:27:15;101207.28;;;10.56;55.90
74552;BME280;63025;55.472;38.432;2022-10-15T12:29:41;101212.94;;;10.61;56.23
74552;BME280;63025;55.472;38.432;2022-10-15T12:32:43;101210.56;;;10.66;56.17
74552;BME280;63025;55.472;38.432;2022-10-15T12:37:40;101212.41;;;10.65;56.43
74552;BME280;63025;55.472;38.432;2022-10-15T12:40:28;101200.53;;;10.60;56.60
74552;BME280;63025;55.472;38.432;2022-10-15T12:43:02;101206.63;;;10.54;57.03
74552;BME280;63025;55.472;38.432;2022-10-15T12:45:37;101210.81;;;10.56;57.78
74552;BME280;63025;55.472;38.432;2022-10-15T12:50:34;101209.00;;;10.49;58.58
74552;BME280;63025;55.472;38.432;2022-10-15T12:53:02;101209.00;;;10.49;58.60
74552;BME280;63025;55.472;38.432;2022-10-15T12:55:37;101212.38;;;10.51;58.93
74552;BME280;63025;55.472;38.432;2022-10-15T12:58:32;101209.97;;;10.56;59.07
74552;BME280;63025;55.472;38.432;2022-10-15T13:16:36;101212.56;;;10.26;58.82
74552;BME280;63025;55.472;38.432;2022-10-15T13:19:03;101213.41;;;10.27;58.75
74552;BME280;63025;55.472;38.432;2022-10-15T13:21:54;101212.09;;;10.15;59.22
74552;BME280;63025;55.472;38.432;2022-10-15T13:24:26;101203.97;;;10.00;58.52
74552;BME280;63025;55.472;38.432;2022-10-15T13:26:54;101202.94;;;10.01;58.95
74552;BME280;63025;55.472;38.432;2022-10-15T13:29:23;101206.31;;;10.03;59.26
74552;BME280;63025;55.472;38.432;2022-10-15T13:31:51;101214.00;;;10.06;58.91
74552;BME280;63025;55.472;38.432;2022-10-15T13:34:28;101215.66;;;10.07;58.78
74552;BME280;63025;55.472;38.432;2022-10-15T13:36:59;101208.97;;;10.03;59.27
74552;BME280;63025;55.472;38.432;2022-10-15T13:39:30;101205.47;;;10.03;59.14
74552;BME280;63025;55.472;38.432;2022-10-15T13:44:35;101205.50;;;9.94;59.68
74552;BME280;63025;55.472;38.432;2022-10-15T13:47:01;101211.34;;;9.98;59.89
74552;BME280;63025;55.472;38.432;2022-10-15T13:49:27;101211.34;;;9.98;59.86
74552;BME280;63025;55.472;38.432;2022-10-15T13:51:53;101207.03;;;9.89;59.61
74552;BME280;63025;55.472;38.432;2022-10-15T13:54:22;101210.28;;;9.84;60.05
74552;BME280;63025;55.472;38.432;2022-10-15T13:56:54;101210.50;;;9.75;59.60
74552;BME280;63025;55.472;38.432;2022-10-15T13:59:23;101212.81;;;9.78;59.82
74552;BME280;63025;55.472;38.432;2022-10-15T14:01:55;101214.84;;;9.76;59.98
74552;BME280;63025;55.472;38.432;2022-10-15T14:04:30;101219.06;;;9.70;60.11
74552;BME280;63025;55.472;38.432;2022-10-15T14:06:59;101219.22;;;9.69;60.32
74552;BME280;63025;55.472;38.432;2022-10-15T14:09:36;101213.56;;;9.64;60.41
74552;BME280;63025;55.472;38.432;2022-10-15T14:12:06;101223.47;;;9.63;60.51
74552;BME280;63025;55.472;38.432;2022-10-15T14:14:39;101225.13;;;9.64;60.30
74552;BME280;63025;55.472;38.432;2022-10-15T14:17:10;101213.91;;;9.61;60.93
74552;BME280;63025;55.472;38.432;2022-10-15T14:19:50;101220.94;;;9.62;60.86
74552;BME280;63025;55.472;38.432;2022-10-15T14:22:19;101217.94;;;9.56;61.02
74552;BME280;63025;55.472;38.432;2022-10-15T14:24:50;101223.31;;;9.56;61.02
74552;BME280;63025;55.472;38.432;2022-10-15T14:27:20;101225.97;;;9.56;61.22
74552;BME280;63025;55.472;38.432;2022-10-15T14:29:48;101222.00;;;9.52;61.22
74552;BME280;63025;55.472;38.432;2022-10-15T14:32:23;101228.38;;;9.51;61.51
74552;BME280;63025;55.472;38.432;2022-10-15T14:34:51;101218.97;;;9.47;61.42
74552;BME280;63025;55.472;38.432;2022-10-15T14:37:38;101225.53;;;9.45;61.62
74552;BME280;63025;55.472;38.432;2022-10-15T14:40:10;101226.06;;;9.40;61.91
74552;BME280;63025;55.472;38.432;2022-10-15T14:42:40;101229.44;;;9.34;61.62
74552;BME280;63025;55.472;38.432;2022-10-15T14:45:28;101230.75;;;9.38;62.21
74552;BME280;63025;55.472;38.432;2022-10-15T14:48:00;101227.22;;;9.38;62.38
74552;BME280;63025;55.472;38.432;2022-10-15T14:50:34;101232.75;;;9.36;62.31
74552;BME280;63025;55.472;38.432;2022-10-15T14:53:06;101229.59;;;9.33;62.63
74552;BME280;63025;55.472;38.432;2022-10-15T14:55:37;101237.50;;;9.34;62.77
74552;BME280;63025;55.472;38.432;2022-10-15T14:58:08;101236.16;;;9.30;62.62
74552;BME280;63025;55.472;38.432;2022-10-15T15:00:43;101240.69;;;9.30;62.79